sensor_id;sensor_type;location;lat;lon;timestamp;P1;durP1;ratioP1;P2;durP2;ratioP2
60257;SDS011;46115;44.484;11.314;2023-04-03T00:03:42;5.30;;;2.78;;
60257;SDS011;46115;44.484;11.314;2023-04-03T00:07:45;3.88;;;2.63;;
60257;SDS011;46115;44.484;11.314;2023-04-03T00:11:47;4.78;;;2.45;;
60257;SDS011;46115;44.484;11.314;2023-04-03T00:15:51;5.10;;;2.58;;
60257;SDS011;46115;44.484;11.314;2023-04-03T00:19:54;6.00;;;2.70;;
60257;SDS011;46115;44.484;11.314;2023-04-03T00:23:56;4.30;;;2.55;;
60257;SDS011;46115;44.484;11.314;2023-04-03T00:27:59;3.85;;;2.47;;
60257;SDS011;46115;44.484;11.314;2023-04-03T00:32:03;3.03;;;2.30;;
60257;SDS011;46115;44.484;11.314;2023-04-03T00:36:06;3.25;;;2.30;;
60257;SDS011;46115;44.484;11.314;2023-04-03T00:40:09;2.83;;;2.13;;
60257;SDS011;46115;44.484;11.314;2023-04-03T00:44:23;4.07;;;2.22;;
60257;SDS011;46115;44.484;11.314;2023-04-03T00:49:05;3.10;;;2.25;;
60257;SDS011;46115;44.484;11.314;2023-04-03T00:53:09;5.90;;;2.60;;
60257;SDS011;46115;44.484;11.314;2023-04-03T00:57:16;3.55;;;2.35;;
60257;SDS011;46115;44.484;11.314;2023-04-03T01:01:20;3.22;;;2.60;;
60257;SDS011;46115;44.484;11.314;2023-04-03T01:05:26;4.05;;;2.67;;
60257;SDS011;46115;44.484;11.314;2023-04-03T01:09:28;3.88;;;2.70;;
60257;SDS011;46115;44.484;11.314;2023-04-03T01:13:32;4.70;;;2.50;;
60257;SDS011;46115;44.484;11.314;2023-04-03T01:17:36;5.13;;;2.72;;
60257;SDS011;46115;44.484;11.314;2023-04-03T01:21:49;3.17;;;2.30;;
60257;SDS011;46115;44.484;11.314;2023-04-03T01:26:13;3.45;;;2.13;;
60257;SDS011;46115;44.484;11.314;2023-04-03T01:30:18;3.53;;;2.50;;
60257;SDS011;46115;44.484;11.314;2023-04-03T01:34:24;3.55;;;2.67;;
60257;SDS011;46115;44.484;11.314;2023-04-03T01:38:27;4.22;;;2.47;;
60257;SDS011;46115;44.484;11.314;2023-04-03T01:42:29;4.50;;;2.63;;
60257;SDS011;46115;44.484;11.314;2023-04-03T01:46:32;3.35;;;2.50;;
60257;SDS011;46115;44.484;11.314;2023-04-03T01:50:36;3.38;;;2.28;;
60257;SDS011;46115;44.484;11.314;2023-04-03T01:54:39;4.50;;;2.17;;
60257;SDS011;46115;44.484;11.314;2023-04-03T01:58:42;3.10;;;2.30;;
60257;SDS011;46115;44.484;11.314;2023-04-03T02:02:45;3.65;;;2.30;;
60257;SDS011;46115;44.484;11.314;2023-04-03T02:06:49;4.07;;;2.60;;
60257;SDS011;46115;44.484;11.314;2023-04-03T02:10:52;5.28;;;2.67;;
60257;SDS011;46115;44.484;11.314;2023-04-03T02:14:55;5.05;;;2.90;;
60257;SDS011;46115;44.484;11.314;2023-04-03T02:18:57;3.70;;;2.47;;
60257;SDS011;46115;44.484;11.314;2023-04-03T02:23:01;3.40;;;2.50;;
60257;SDS011;46115;44.484;11.314;2023-04-03T02:27:05;4.85;;;2.50;;
60257;SDS011;46115;44.484;11.314;2023-04-03T02:31:08;3.83;;;2.60;;
60257;SDS011;46115;44.484;11.314;2023-04-03T02:35:13;4.00;;;2.75;;
60257;SDS011;46115;44.484;11.314;2023-04-03T02:39:18;3.10;;;2.45;;
60257;SDS011;46115;44.484;11.314;2023-04-03T02:43:22;5.25;;;2.75;;
60257;SDS011;46115;44.484;11.314;2023-04-03T02:47:24;4.38;;;2.70;;
60257;SDS011;46115;44.484;11.314;2023-04-03T02:51:27;3.38;;;2.47;;
60257;SDS011;46115;44.484;11.314;2023-04-03T02:55:31;3.53;;;2.70;;
60257;SDS011;46115;44.484;11.314;2023-04-03T02:59:34;3.22;;;2.53;;
60257;SDS011;46115;44.484;11.314;2023-04-03T03:03:36;4.53;;;2.50;;
60257;SDS011;46115;44.484;11.314;2023-04-03T03:07:39;4.88;;;2.40;;
60257;SDS011;46115;44.484;11.314;2023-04-03T03:11:43;3.92;;;2.60;;
60257;SDS011;46115;44.484;11.314;2023-04-03T03:15:45;3.92;;;2.38;;
60257;SDS011;46115;44.484;11.314;2023-04-03T03:23:50;4.70;;;2.70;;
60257;SDS011;46115;44.484;11.314;2023-04-03T03:27:54;3.67;;;2.50;;
60257;SDS011;46115;44.484;11.314;2023-04-03T03:31:56;3.72;;;2.50;;
60257;SDS011;46115;44.484;11.314;2023-04-03T03:35:59;4.70;;;2.63;;
60257;SDS011;46115;44.484;11.314;2023-04-03T03:40:02;4.25;;;2.83;;
60257;SDS011;46115;44.484;11.314;2023-04-03T03:44:07;4.28;;;2.40;;
60257;SDS011;46115;44.484;11.314;2023-04-03T03:48:10;5.82;;;2.97;;
60257;SDS011;46115;44.484;11.314;2023-04-03T03:52:12;3.03;;;2.38;;
60257;SDS011;46115;44.484;11.314;2023-04-03T03:56:15;6.53;;;2.50;;
60257;SDS011;46115;44.484;11.314;2023-04-03T04:00:21;4.30;;;2.67;;
60257;SDS011;46115;44.484;11.314;2023-04-03T04:04:28;4.57;;;2.60;;
60257;SDS011;46115;44.484;11.314;2023-04-03T04:08:31;3.78;;;2.80;;
60257;SDS011;46115;44.484;11.314;2023-04-03T04:12:33;5.03;;;2.80;;
60257;SDS011;46115;44.484;11.314;2023-04-03T04:16:38;6.68;;;2.60;;
60257;SDS011;46115;44.484;11.314;2023-04-03T04:20:45;3.78;;;2.40;;
60257;SDS011;46115;44.484;11.314;2023-04-03T04:24:50;3.15;;;2.30;;
60257;SDS011;46115;44.484;11.314;2023-04-03T04:28:53;4.43;;;2.75;;
60257;SDS011;46115;44.484;11.314;2023-04-03T04:32:57;3.92;;;2.50;;
60257;SDS011;46115;44.484;11.314;2023-04-03T04:37:00;3.67;;;2.53;;
60257;SDS011;46115;44.484;11.314;2023-04-03T04:41:04;3.92;;;2.45;;
60257;SDS011;46115;44.484;11.314;2023-04-03T04:45:07;3.78;;;2.38;;
60257;SDS011;46115;44.484;11.314;2023-04-03T04:49:12;3.03;;;2.33;;
60257;SDS011;46115;44.484;11.314;2023-04-03T04:53:15;3.30;;;2.58;;
60257;SDS011;46115;44.484;11.314;2023-04-03T04:57:18;3.40;;;2.67;;
60257;SDS011;46115;44.484;11.314;2023-04-03T05:01:21;6.00;;;2.90;;
60257;SDS011;46115;44.484;11.314;2023-04-03T05:05:32;5.47;;;3.10;;
60257;SDS011;46115;44.484;11.314;2023-04-03T05:09:36;4.53;;;2.88;;
60257;SDS011;46115;44.484;11.314;2023-04-03T05:13:40;3.30;;;2.83;;
60257;SDS011;46115;44.484;11.314;2023-04-03T05:17:43;5.15;;;3.10;;
60257;SDS011;46115;44.484;11.314;2023-04-03T05:21:49;6.70;;;2.90;;
60257;SDS011;46115;44.484;11.314;2023-04-03T05:25:52;6.15;;;3.30;;
60257;SDS011;46115;44.484;11.314;2023-04-03T05:29:56;4.68;;;3.25;;
60257;SDS011;46115;44.484;11.314;2023-04-03T05:34:01;4.53;;;3.22;;
60257;SDS011;46115;44.484;11.314;2023-04-03T05:38:07;4.60;;;3.33;;
60257;SDS011;46115;44.484;11.314;2023-04-03T05:42:10;6.45;;;3.83;;
60257;SDS011;46115;44.484;11.314;2023-04-03T05:46:14;4.25;;;3.30;;
60257;SDS011;46115;44.484;11.314;2023-04-03T05:50:19;3.53;;;3.10;;
60257;SDS011;46115;44.484;11.314;2023-04-03T05:54:27;5.35;;;3.40;;
60257;SDS011;46115;44.484;11.314;2023-04-03T05:58:47;4.50;;;2.90;;
60257;SDS011;46115;44.484;11.314;2023-04-03T06:02:49;6.25;;;3.17;;
60257;SDS011;46115;44.484;11.314;2023-04-03T06:06:56;4.82;;;2.60;;
60257;SDS011;46115;44.484;11.314;2023-04-03T06:11:02;6.90;;;3.10;;
60257;SDS011;46115;44.484;11.314;2023-04-03T06:15:05;3.25;;;2.78;;
60257;SDS011;46115;44.484;11.314;2023-04-03T06:19:09;5.88;;;3.17;;
60257;SDS011;46115;44.484;11.314;2023-04-03T06:23:15;4.90;;;3.20;;
60257;SDS011;46115;44.484;11.314;2023-04-03T06:27:20;4.75;;;3.60;;
60257;SDS011;46115;44.484;11.314;2023-04-03T06:31:22;7.05;;;3.00;;
60257;SDS011;46115;44.484;11.314;2023-04-03T06:35:25;5.90;;;3.58;;
60257;SDS011;46115;44.484;11.314;2023-04-03T06:39:29;16.20;;;4.47;;
60257;SDS011;46115;44.484;11.314;2023-04-03T06:43:33;11.43;;;4.53;;
60257;SDS011;46115;44.484;11.314;2023-04-03T06:47:35;6.45;;;3.58;;
60257;SDS011;46115;44.484;11.314;2023-04-03T06:51:38;7.28;;;3.90;;
60257;SDS011;46115;44.484;11.314;2023-04-03T06:55:40;8.20;;;4.65;;
60257;SDS011;46115;44.484;11.314;2023-04-03T06:59:44;6.10;;;5.50;;
60257;SDS011;46115;44.484;11.314;2023-04-03T07:03:47;8.02;;;5.80;;
60257;SDS011;46115;44.484;11.314;2023-04-03T07:07:50;8.93;;;5.95;;
60257;SDS011;46115;44.484;11.314;2023-04-03T07:11:52;9.70;;;6.20;;
60257;SDS011;46115;44.484;11.314;2023-04-03T07:15:56;8.20;;;6.47;;
60257;SDS011;46115;44.484;11.314;2023-04-03T07:19:59;7.68;;;6.43;;
60257;SDS011;46115;44.484;11.314;2023-04-03T07:24:06;7.22;;;6.20;;
60257;SDS011;46115;44.484;11.314;2023-04-03T07:28:08;12.48;;;6.55;;
60257;SDS011;46115;44.484;11.314;2023-04-03T07:32:12;8.23;;;6.50;;
60257;SDS011;46115;44.484;11.314;2023-04-03T07:36:15;8.35;;;6.50;;
60257;SDS011;46115;44.484;11.314;2023-04-03T07:40:19;7.28;;;6.45;;
60257;SDS011;46115;44.484;11.314;2023-04-03T07:44:22;8.98;;;7.28;;
60257;SDS011;46115;44.484;11.314;2023-04-03T07:48:26;9.07;;;7.45;;
60257;SDS011;46115;44.484;11.314;2023-04-03T07:52:28;10.38;;;7.15;;
60257;SDS011;46115;44.484;11.314;2023-04-03T07:56:31;9.10;;;7.20;;
60257;SDS011;46115;44.484;11.314;2023-04-03T08:00:34;9.88;;;7.70;;
60257;SDS011;46115;44.484;11.314;2023-04-03T08:04:37;10.45;;;7.75;;
60257;SDS011;46115;44.484;11.314;2023-04-03T08:08:40;8.93;;;7.25;;
60257;SDS011;46115;44.484;11.314;2023-04-03T08:12:45;7.65;;;6.50;;
60257;SDS011;46115;44.484;11.314;2023-04-03T08:16:48;10.95;;;6.45;;
60257;SDS011;46115;44.484;11.314;2023-04-03T08:20:52;11.65;;;7.00;;
60257;SDS011;46115;44.484;11.314;2023-04-03T08:24:54;10.15;;;5.70;;
60257;SDS011;46115;44.484;11.314;2023-04-03T08:28:56;8.02;;;5.75;;
60257;SDS011;46115;44.484;11.314;2023-04-03T08:33:00;6.68;;;4.32;;
60257;SDS011;46115;44.484;11.314;2023-04-03T08:37:04;6.38;;;4.00;;
60257;SDS011;46115;44.484;11.314;2023-04-03T08:41:10;7.53;;;5.20;;
60257;SDS011;46115;44.484;11.314;2023-04-03T08:45:17;9.15;;;5.25;;
60257;SDS011;46115;44.484;11.314;2023-04-03T08:49:30;9.73;;;5.60;;
60257;SDS011;46115;44.484;11.314;2023-04-03T08:53:36;7.97;;;4.85;;
60257;SDS011;46115;44.484;11.314;2023-04-03T08:57:44;6.80;;;5.50;;
60257;SDS011;46115;44.484;11.314;2023-04-03T09:01:49;8.20;;;5.20;;
60257;SDS011;46115;44.484;11.314;2023-04-03T09:05:53;7.60;;;4.72;;
60257;SDS011;46115;44.484;11.314;2023-04-03T09:10:00;7.38;;;5.65;;
60257;SDS011;46115;44.484;11.314;2023-04-03T09:14:04;8.77;;;6.35;;
60257;SDS011;46115;44.484;11.314;2023-04-03T09:18:16;7.50;;;6.23;;
60257;SDS011;46115;44.484;11.314;2023-04-03T09:22:24;9.25;;;5.45;;
60257;SDS011;46115;44.484;11.314;2023-04-03T09:26:30;7.07;;;4.43;;
60257;SDS011;46115;44.484;11.314;2023-04-03T09:30:37;6.75;;;5.28;;
60257;SDS011;46115;44.484;11.314;2023-04-03T09:34:40;9.70;;;5.15;;
60257;SDS011;46115;44.484;11.314;2023-04-03T09:38:45;12.27;;;5.32;;
60257;SDS011;46115;44.484;11.314;2023-04-03T09:42:49;8.55;;;4.75;;
60257;SDS011;46115;44.484;11.314;2023-04-03T09:46:51;5.85;;;4.38;;
60257;SDS011;46115;44.484;11.314;2023-04-03T09:50:58;9.02;;;4.72;;
60257;SDS011;46115;44.484;11.314;2023-04-03T09:55:06;7.35;;;4.90;;
60257;SDS011;46115;44.484;11.314;2023-04-03T09:59:14;9.70;;;5.05;;
60257;SDS011;46115;44.484;11.314;2023-04-03T10:03:23;8.85;;;4.60;;
60257;SDS011;46115;44.484;11.314;2023-04-03T10:07:30;7.75;;;6.22;;
60257;SDS011;46115;44.484;11.314;2023-04-03T10:11:35;9.77;;;5.70;;
60257;SDS011;46115;44.484;11.314;2023-04-03T10:19:45;8.85;;;5.40;;
60257;SDS011;46115;44.484;11.314;2023-04-03T10:23:54;8.13;;;4.70;;
60257;SDS011;46115;44.484;11.314;2023-04-03T10:28:03;6.55;;;4.28;;
60257;SDS011;46115;44.484;11.314;2023-04-03T10:32:18;7.22;;;3.58;;
60257;SDS011;46115;44.484;11.314;2023-04-03T10:36:33;4.88;;;2.50;;
60257;SDS011;46115;44.484;11.314;2023-04-03T10:40:43;5.50;;;2.38;;
60257;SDS011;46115;44.484;11.314;2023-04-03T10:44:55;8.95;;;2.60;;
60257;SDS011;46115;44.484;11.314;2023-04-03T10:49:14;6.63;;;2.47;;
60257;SDS011;46115;44.484;11.314;2023-04-03T10:53:29;6.72;;;2.80;;
60257;SDS011;46115;44.484;11.314;2023-04-03T10:57:36;4.75;;;2.00;;
60257;SDS011;46115;44.484;11.314;2023-04-03T11:01:42;4.97;;;1.95;;
60257;SDS011;46115;44.484;11.314;2023-04-03T11:05:49;6.65;;;2.00;;
60257;SDS011;46115;44.484;11.314;2023-04-03T11:09:56;5.47;;;2.17;;
60257;SDS011;46115;44.484;11.314;2023-04-03T11:14:05;5.03;;;2.10;;
60257;SDS011;46115;44.484;11.314;2023-04-03T11:18:14;3.97;;;1.90;;
60257;SDS011;46115;44.484;11.314;2023-04-03T11:22:23;3.88;;;1.90;;
60257;SDS011;46115;44.484;11.314;2023-04-03T11:26:29;3.53;;;1.70;;
60257;SDS011;46115;44.484;11.314;2023-04-03T11:30:38;8.15;;;1.75;;
60257;SDS011;46115;44.484;11.314;2023-04-03T11:34:47;3.47;;;1.48;;
60257;SDS011;46115;44.484;11.314;2023-04-03T11:38:53;5.70;;;1.98;;
60257;SDS011;46115;44.484;11.314;2023-04-03T11:43:03;5.60;;;1.67;;
60257;SDS011;46115;44.484;11.314;2023-04-03T11:47:09;8.07;;;1.70;;
60257;SDS011;46115;44.484;11.314;2023-04-03T11:55:59;4.10;;;1.90;;
60257;SDS011;46115;44.484;11.314;2023-04-03T12:04:39;3.75;;;1.70;;
60257;SDS011;46115;44.484;11.314;2023-04-03T12:09:26;3.67;;;1.40;;
60257;SDS011;46115;44.484;11.314;2023-04-03T12:13:32;6.07;;;1.38;;
60257;SDS011;46115;44.484;11.314;2023-04-03T12:17:35;3.78;;;1.10;;
60257;SDS011;46115;44.484;11.314;2023-04-03T12:26:20;1.70;;;1.20;;
60257;SDS011;46115;44.484;11.314;2023-04-03T12:30:25;3.35;;;1.35;;
60257;SDS011;46115;44.484;11.314;2023-04-03T12:34:38;6.28;;;1.30;;
60257;SDS011;46115;44.484;11.314;2023-04-03T12:39:11;5.30;;;1.27;;
60257;SDS011;46115;44.484;11.314;2023-04-03T12:43:27;3.95;;;1.38;;
60257;SDS011;46115;44.484;11.314;2023-04-03T12:47:40;5.57;;;1.20;;
60257;SDS011;46115;44.484;11.314;2023-04-03T12:51:45;4.53;;;1.20;;
60257;SDS011;46115;44.484;11.314;2023-04-03T12:55:52;3.47;;;1.27;;
60257;SDS011;46115;44.484;11.314;2023-04-03T12:59:56;2.97;;;1.17;;
60257;SDS011;46115;44.484;11.314;2023-04-03T13:04:00;2.72;;;1.30;;
60257;SDS011;46115;44.484;11.314;2023-04-03T13:08:03;2.70;;;1.00;;
60257;SDS011;46115;44.484;11.314;2023-04-03T13:12:10;5.25;;;1.15;;
60257;SDS011;46115;44.484;11.314;2023-04-03T13:16:15;5.97;;;1.15;;
60257;SDS011;46115;44.484;11.314;2023-04-03T13:20:22;3.67;;;1.15;;
60257;SDS011;46115;44.484;11.314;2023-04-03T13:24:27;3.50;;;1.42;;
60257;SDS011;46115;44.484;11.314;2023-04-03T13:28:31;2.58;;;1.20;;
60257;SDS011;46115;44.484;11.314;2023-04-03T13:32:35;4.50;;;1.45;;
60257;SDS011;46115;44.484;11.314;2023-04-03T13:36:40;3.80;;;1.10;;
60257;SDS011;46115;44.484;11.314;2023-04-03T13:40:47;5.47;;;1.55;;
60257;SDS011;46115;44.484;11.314;2023-04-03T13:49:19;4.80;;;1.17;;
60257;SDS011;46115;44.484;11.314;2023-04-03T13:53:24;5.00;;;1.23;;
60257;SDS011;46115;44.484;11.314;2023-04-03T13:57:27;3.10;;;1.10;;
60257;SDS011;46115;44.484;11.314;2023-04-03T14:01:34;3.38;;;1.33;;
60257;SDS011;46115;44.484;11.314;2023-04-03T14:05:42;4.03;;;1.30;;
60257;SDS011;46115;44.484;11.314;2023-04-03T14:09:47;3.42;;;1.58;;
60257;SDS011;46115;44.484;11.314;2023-04-03T14:13:50;2.97;;;1.20;;
60257;SDS011;46115;44.484;11.314;2023-04-03T14:17:53;2.35;;;1.17;;
60257;SDS011;46115;44.484;11.314;2023-04-03T14:21:56;3.67;;;1.20;;
60257;SDS011;46115;44.484;11.314;2023-04-03T14:26:01;2.00;;;1.00;;
60257;SDS011;46115;44.484;11.314;2023-04-03T14:30:05;4.53;;;1.13;;
60257;SDS011;46115;44.484;11.314;2023-04-03T14:34:11;2.88;;;1.25;;
60257;SDS011;46115;44.484;11.314;2023-04-03T14:38:20;4.80;;;1.20;;
60257;SDS011;46115;44.484;11.314;2023-04-03T14:42:27;3.22;;;1.13;;
60257;SDS011;46115;44.484;11.314;2023-04-03T14:46:32;3.42;;;1.40;;
60257;SDS011;46115;44.484;11.314;2023-04-03T14:50:37;9.73;;;1.50;;
60257;SDS011;46115;44.484;11.314;2023-04-03T14:54:39;6.05;;;1.15;;
60257;SDS011;46115;44.484;11.314;2023-04-03T14:58:43;3.47;;;1.20;;
60257;SDS011;46115;44.484;11.314;2023-04-03T15:02:50;4.55;;;1.40;;
60257;SDS011;46115;44.484;11.314;2023-04-03T15:06:53;3.40;;;1.42;;
60257;SDS011;46115;44.484;11.314;2023-04-03T15:10:55;2.85;;;1.50;;
60257;SDS011;46115;44.484;11.314;2023-04-03T15:15:00;4.75;;;1.33;;
60257;SDS011;46115;44.484;11.314;2023-04-03T15:19:02;4.57;;;1.40;;
60257;SDS011;46115;44.484;11.314;2023-04-03T15:23:05;2.17;;;1.15;;
60257;SDS011;46115;44.484;11.314;2023-04-03T15:27:07;5.68;;;1.30;;
60257;SDS011;46115;44.484;11.314;2023-04-03T15:31:12;3.45;;;1.40;;
60257;SDS011;46115;44.484;11.314;2023-04-03T15:35:14;5.97;;;1.85;;
60257;SDS011;46115;44.484;11.314;2023-04-03T15:39:17;3.45;;;1.30;;
60257;SDS011;46115;44.484;11.314;2023-04-03T15:43:19;4.22;;;1.20;;
60257;SDS011;46115;44.484;11.314;2023-04-03T15:47:23;3.60;;;1.40;;
60257;SDS011;46115;44.484;11.314;2023-04-03T15:51:26;4.05;;;1.48;;
60257;SDS011;46115;44.484;11.314;2023-04-03T15:59:31;3.17;;;1.20;;
60257;SDS011;46115;44.484;11.314;2023-04-03T16:03:35;2.42;;;1.02;;
60257;SDS011;46115;44.484;11.314;2023-04-03T16:07:39;3.42;;;1.02;;
60257;SDS011;46115;44.484;11.314;2023-04-03T16:11:42;5.57;;;1.40;;
60257;SDS011;46115;44.484;11.314;2023-04-03T16:15:44;6.00;;;1.30;;
60257;SDS011;46115;44.484;11.314;2023-04-03T16:19:48;6.20;;;1.40;;
60257;SDS011;46115;44.484;11.314;2023-04-03T16:23:51;4.65;;;1.30;;
60257;SDS011;46115;44.484;11.314;2023-04-03T16:27:53;3.25;;;1.20;;
60257;SDS011;46115;44.484;11.314;2023-04-03T16:31:56;2.88;;;1.20;;
60257;SDS011;46115;44.484;11.314;2023-04-03T16:36:01;2.38;;;1.23;;
60257;SDS011;46115;44.484;11.314;2023-04-03T16:40:06;2.30;;;1.10;;
60257;SDS011;46115;44.484;11.314;2023-04-03T16:44:09;4.25;;;1.10;;
60257;SDS011;46115;44.484;11.314;2023-04-03T16:48:12;3.85;;;1.00;;
60257;SDS011;46115;44.484;11.314;2023-04-03T16:56:18;3.22;;;1.40;;
60257;SDS011;46115;44.484;11.314;2023-04-03T17:00:21;4.55;;;1.10;;
60257;SDS011;46115;44.484;11.314;2023-04-03T17:04:23;4.18;;;1.08;;
60257;SDS011;46115;44.484;11.314;2023-04-03T17:08:27;6.40;;;1.38;;
60257;SDS011;46115;44.484;11.314;2023-04-03T17:12:29;5.60;;;1.30;;
60257;SDS011;46115;44.484;11.314;2023-04-03T17:20:34;2.58;;;1.17;;
60257;SDS011;46115;44.484;11.314;2023-04-03T17:24:40;3.00;;;1.30;;
60257;SDS011;46115;44.484;11.314;2023-04-03T17:28:42;3.83;;;1.20;;
60257;SDS011;46115;44.484;11.314;2023-04-03T17:36:46;4.10;;;1.45;;
60257;SDS011;46115;44.484;11.314;2023-04-03T17:40:51;4.30;;;1.48;;
60257;SDS011;46115;44.484;11.314;2023-04-03T17:44:57;3.35;;;1.23;;
60257;SDS011;46115;44.484;11.314;2023-04-03T17:49:01;2.80;;;1.20;;
60257;SDS011;46115;44.484;11.314;2023-04-03T17:53:04;8.27;;;1.40;;
60257;SDS011;46115;44.484;11.314;2023-04-03T17:57:08;4.80;;;1.20;;
60257;SDS011;46115;44.484;11.314;2023-04-03T18:01:11;7.70;;;1.58;;
60257;SDS011;46115;44.484;11.314;2023-04-03T18:05:15;3.60;;;1.45;;
60257;SDS011;46115;44.484;11.314;2023-04-03T18:09:18;3.42;;;1.40;;
60257;SDS011;46115;44.484;11.314;2023-04-03T18:13:24;4.65;;;1.83;;
60257;SDS011;46115;44.484;11.314;2023-04-03T18:17:29;4.53;;;2.20;;
60257;SDS011;46115;44.484;11.314;2023-04-03T18:21:31;4.75;;;1.73;;
60257;SDS011;46115;44.484;11.314;2023-04-03T22:06:10;9.60;;;2.55;;
60257;SDS011;46115;44.484;11.314;2023-04-03T22:10:13;8.70;;;2.47;;
60257;SDS011;46115;44.484;11.314;2023-04-03T22:14:16;11.18;;;2.65;;
60257;SDS011;46115;44.484;11.314;2023-04-03T22:18:20;5.70;;;2.22;;
60257;SDS011;46115;44.484;11.314;2023-04-03T22:26:26;5.00;;;2.22;;
60257;SDS011;46115;44.484;11.314;2023-04-03T22:34:30;8.38;;;2.45;;
60257;SDS011;46115;44.484;11.314;2023-04-03T22:38:34;10.20;;;2.88;;
60257;SDS011;46115;44.484;11.314;2023-04-03T22:42:37;9.30;;;2.75;;
60257;SDS011;46115;44.484;11.314;2023-04-03T22:50:42;7.40;;;2.70;;
60257;SDS011;46115;44.484;11.314;2023-04-03T22:54:46;7.70;;;3.00;;
60257;SDS011;46115;44.484;11.314;2023-04-03T22:58:48;8.10;;;3.38;;
60257;SDS011;46115;44.484;11.314;2023-04-03T23:02:51;9.80;;;3.83;;
60257;SDS011;46115;44.484;11.314;2023-04-03T23:10:57;6.30;;;2.92;;
60257;SDS011;46115;44.484;11.314;2023-04-03T23:15:00;7.95;;;3.10;;
60257;SDS011;46115;44.484;11.314;2023-04-03T23:23:04;9.68;;;2.47;;
60257;SDS011;46115;44.484;11.314;2023-04-03T23:31:11;5.00;;;2.45;;
60257;SDS011;46115;44.484;11.314;2023-04-03T23:35:13;6.93;;;2.33;;
60257;SDS011;46115;44.484;11.314;2023-04-03T23:39:16;9.70;;;3.00;;
60257;SDS011;46115;44.484;11.314;2023-04-03T23:43:21;6.88;;;2.75;;
60257;SDS011;46115;44.484;11.314;2023-04-03T23:47:23;8.18;;;4.10;;
60257;SDS011;46115;44.484;11.314;2023-04-03T23:55:27;7.78;;;3.50;;
60257;SDS011;46115;44.484;11.314;2023-04-03T23:59:31;8.35;;;3.50;;
